nws-alerts: Checking more than four warning/county codes can delay the loading of your pages. You should use a cron job to get the data.
EllijayWeather Station Historical Data
Daily Summary for December 14, 2019 Units:  English    Metric   Both
Daily Weekly Monthly Yearly Custom
  High: Low: Average:
Temperature: 49.5 °F 36.7 °F 43.9 °F
Dew Point: 45.5 °F 35.4 °F 41.4 °F
Humidity: 98% 73% 92%
Wind Speed: 4mph 0mph 0.2mph
Wind Gust: 7mph - -
Wind- - WSW
Pressure: 30.00 in 29.72 in -
Precipitation: 0.03 in    
Historical Graphs
 
 
Tabular Data for December 14, 2019
Time Temperature Dew Point Pressure Wind Wind Speed Wind Gust Humidity Rainfall Rate (Hourly) solar
00:00 46 °F 45.5 °F 29.78 in Calm   2 mph 98% 0 in meteobridge W/m2
00:05 45.9 °F 45.3 °F 29.78 in Calm     98% 0 in meteobridge W/m2
00:10 45.9 °F 45.3 °F 29.77 in Calm     98% 0 in meteobridge W/m2
00:15 45.7 °F 45.1 °F 29.77 in Calm     98% 0 in meteobridge W/m2
00:20 45.7 °F 45.1 °F 29.77 in Calm     98% 0 in meteobridge W/m2
00:25 45.5 °F 45 °F 29.77 in Calm     98% 0 in meteobridge W/m2
00:31 45.5 °F 45 °F 29.76 in Calm     98% 0 in meteobridge W/m2
00:35 45.5 °F 45 °F 29.75 in Calm     98% 0 in meteobridge W/m2
00:40 45.5 °F 45 °F 29.75 in Calm     98% 0 in meteobridge W/m2
00:45 45.3 °F 44.8 °F 29.75 in Calm     98% 0 in meteobridge W/m2
00:50 45.3 °F 44.8 °F 29.74 in Calm   1 mph 98% 0 in meteobridge W/m2
00:55 45.3 °F 44.8 °F 29.74 in Calm     98% 0 in meteobridge W/m2
01:00 45.1 °F 44.6 °F 29.74 in Calm     98% 0 in meteobridge W/m2
01:05 45.1 °F 44.6 °F 29.73 in Calm     98% 0.01 in meteobridge W/m2
01:10 45 °F 44.4 °F 29.73 in Calm     98% 0.01 in meteobridge W/m2
01:15 45 °F 44.4 °F 29.74 in Calm     98% 0.01 in meteobridge W/m2
01:20 45 °F 44.4 °F 29.75 in Calm     98% 0.01 in meteobridge W/m2
01:25 45 °F 44.4 °F 29.75 in Calm     98% 0.01 in meteobridge W/m2
01:30 45 °F 44.4 °F 29.74 in Calm     98% 0.01 in meteobridge W/m2
01:35 45 °F 44.4 °F 29.75 in Calm   2 mph 98% 0.01 in meteobridge W/m2
01:40 44.8 °F 44.2 °F 29.75 in Calm     98% 0.01 in meteobridge W/m2
01:45 44.8 °F 44.2 °F 29.75 in Calm     98% 0.01 in meteobridge W/m2
01:50 44.8 °F 44.2 °F 29.74 in Calm     98% 0.01 in meteobridge W/m2
01:55 44.4 °F 43.9 °F 29.74 in Calm     98% 0.01 in meteobridge W/m2
02:00 44.4 °F 43.9 °F 29.73 in Calm     98% 0.01 in meteobridge W/m2
02:05 44.4 °F 43.9 °F 29.73 in Calm     98% 0.01 in meteobridge W/m2
02:10 44.4 °F 43.9 °F 29.73 in Calm     98% 0.01 in meteobridge W/m2
02:15 44.4 °F 43.9 °F 29.73 in Calm     98% 0.01 in meteobridge W/m2
02:20 44.2 °F 43.7 °F 29.73 in Calm     98% 0.01 in meteobridge W/m2
02:25 44.2 °F 43.7 °F 29.73 in Calm     98% 0.01 in meteobridge W/m2
02:30 44.2 °F 43.7 °F 29.73 in Calm     98% 0.01 in meteobridge W/m2
02:35 44.2 °F 43.7 °F 29.73 in Calm     98% 0.01 in meteobridge W/m2
02:40 44.2 °F 43.7 °F 29.74 in Calm     98% 0.01 in meteobridge W/m2
02:45 44.2 °F 43.7 °F 29.74 in Calm     98% 0.01 in meteobridge W/m2
02:50 44.2 °F 43.7 °F 29.74 in Calm     98% 0.01 in meteobridge W/m2
02:55 44.2 °F 43.7 °F 29.74 in Calm     98% 0.01 in meteobridge W/m2
03:00 44.2 °F 43.7 °F 29.73 in Calm     98% 0.01 in meteobridge W/m2
03:05 44.1 °F 43.5 °F 29.73 in Calm   1 mph 98% 0 in meteobridge W/m2
03:10 44.1 °F 43.5 °F 29.73 in Calm     98% 0 in meteobridge W/m2
03:15 44.1 °F 43.5 °F 29.74 in NW 0.9 mph 1 mph 98% 0 in meteobridge W/m2
03:20 43.9 °F 43.3 °F 29.74 in Calm     98% 0 in meteobridge W/m2
03:25 43.9 °F 43.3 °F 29.74 in Calm     98% 0 in meteobridge W/m2
03:30 43.9 °F 43.3 °F 29.74 in Calm     98% 0 in meteobridge W/m2
03:35 43.7 °F 43.2 °F 29.74 in Calm     98% 0 in meteobridge W/m2
03:40 43.7 °F 43.2 °F 29.73 in Calm   2 mph 98% 0 in meteobridge W/m2
03:45 43.5 °F 43 °F 29.73 in Calm     98% 0 in meteobridge W/m2
03:50 43.5 °F 43 °F 29.73 in Calm     98% 0 in meteobridge W/m2
03:55 43.5 °F 43 °F 29.73 in Calm     98% 0 in meteobridge W/m2
04:00 43.5 °F 43 °F 29.73 in Calm     98% 0 in meteobridge W/m2
04:05 43.5 °F 43 °F 29.73 in Calm   1 mph 98% 0 in meteobridge W/m2
04:10 43.3 °F 42.8 °F 29.73 in Calm   4 mph 98% 0 in meteobridge W/m2
04:15 43.3 °F 42.8 °F 29.73 in Calm     98% 0 in meteobridge W/m2
04:20 43.3 °F 42.8 °F 29.73 in Calm     98% 0 in meteobridge W/m2
04:25 43.3 °F 42.8 °F 29.72 in Calm     98% 0 in meteobridge W/m2
04:30 43.3 °F 42.8 °F 29.73 in Calm     98% 0 in meteobridge W/m2
04:35 43.3 °F 42.8 °F 29.72 in Calm     98% 0 in meteobridge W/m2
04:40 43.3 °F 42.8 °F 29.72 in Calm     98% 0 in meteobridge W/m2
04:45 43.2 °F 42.6 °F 29.72 in Calm     98% 0 in meteobridge W/m2
04:50 43.2 °F 42.6 °F 29.72 in Calm     98% 0 in meteobridge W/m2
04:55 43.2 °F 42.6 °F 29.73 in NW 0.9 mph 1 mph 98% 0 in meteobridge W/m2
05:00 43.2 °F 42.6 °F 29.73 in Calm     98% 0 in meteobridge W/m2
05:05 43.2 °F 42.6 °F 29.73 in Calm     98% 0 in meteobridge W/m2
05:10 43.2 °F 42.6 °F 29.73 in Calm   3 mph 98% 0 in meteobridge W/m2
05:15 43.2 °F 42.6 °F 29.74 in NW 4 mph 6 mph 98% 0 in meteobridge W/m2
05:20 43.2 °F 42.6 °F 29.74 in Calm     98% 0 in meteobridge W/m2
05:25 43.2 °F 42.6 °F 29.74 in Calm     98% 0 in meteobridge W/m2
05:30 43.2 °F 42.6 °F 29.74 in Calm   4 mph 98% 0 in meteobridge W/m2
05:35 43.2 °F 42.6 °F 29.74 in Calm     98% 0 in meteobridge W/m2
05:40 43.2 °F 42.6 °F 29.74 in Calm     98% 0 in meteobridge W/m2
05:45 43.2 °F 42.6 °F 29.74 in Calm   1 mph 98% 0 in meteobridge W/m2
05:50 43.2 °F 42.6 °F 29.74 in Calm     98% 0 in meteobridge W/m2
05:55 43.2 °F 42.6 °F 29.73 in Calm   3 mph 98% 0 in meteobridge W/m2
06:00 43.2 °F 42.6 °F 29.73 in Calm     98% 0 in meteobridge W/m2
06:05 43.2 °F 42.6 °F 29.73 in Calm     98% 0 in meteobridge W/m2
06:10 43 °F 42.4 °F 29.73 in Calm     98% 0 in meteobridge W/m2
06:15 43 °F 42.4 °F 29.72 in Calm     98% 0 in meteobridge W/m2
06:20 43 °F 42.4 °F 29.73 in Calm     98% 0 in meteobridge W/m2
06:25 43 °F 42.4 °F 29.73 in Calm     98% 0 in meteobridge W/m2
06:30 43 °F 42.4 °F 29.73 in Calm     98% 0 in meteobridge W/m2
06:35 43 °F 42.4 °F 29.73 in Calm     98% 0 in meteobridge W/m2
06:40 43 °F 42.4 °F 29.74 in Calm   3 mph 98% 0 in meteobridge W/m2
06:45 43 °F 42.4 °F 29.74 in Calm     98% 0 in meteobridge W/m2
06:50 43 °F 42.4 °F 29.74 in Calm     98% 0 in meteobridge W/m2
06:55 43 °F 42.4 °F 29.74 in Calm     98% 0 in meteobridge W/m2
07:00 43 °F 42.4 °F 29.74 in Calm   1 mph 98% 0 in meteobridge W/m2
07:05 43 °F 42.4 °F 29.74 in Calm   1 mph 98% 0 in meteobridge W/m2
07:10 43 °F 42.4 °F 29.74 in Calm     98% 0 in meteobridge W/m2
07:15 43 °F 42.4 °F 29.75 in Calm   1 mph 98% 0 in meteobridge W/m2
07:20 43 °F 42.4 °F 29.75 in Calm     98% 0 in meteobridge W/m2
07:25 42.8 °F 42.3 °F 29.75 in Calm     98% 0 in meteobridge W/m2
07:30 43 °F 42.4 °F 29.75 in Calm   2 mph 98% 0 in meteobridge W/m2
07:35 42.8 °F 42.3 °F 29.75 in Calm   1 mph 98% 0 in meteobridge W/m2
07:40 42.6 °F 42.1 °F 29.75 in Calm     98% 0 in meteobridge W/m2
07:45 42.6 °F 42.1 °F 29.75 in Calm     98% 0 in meteobridge W/m2
07:50 42.6 °F 42.1 °F 29.75 in Calm     98% 0 in meteobridge W/m2
07:55 42.6 °F 42.1 °F 29.75 in Calm     98% 0 in meteobridge W/m2
08:00 42.6 °F 42.1 °F 29.75 in WNW 0.9 mph 5 mph 98% 0 in meteobridge W/m2
08:05 42.4 °F 41.9 °F 29.75 in Calm   7 mph 98% 0 in meteobridge W/m2
08:10 42.4 °F 41.7 °F 29.75 in Calm   2 mph 97% 0 in meteobridge W/m2
08:15 42.4 °F 41.9 °F 29.75 in Calm   2 mph 98% 0 in meteobridge W/m2
08:20 42.6 °F 42.1 °F 29.75 in Calm     98% 0 in meteobridge W/m2
08:25 42.6 °F 42.1 °F 29.76 in Calm     98% 0 in meteobridge W/m2
08:30 42.6 °F 42.1 °F 29.76 in Calm     98% 0 in meteobridge W/m2
08:35 42.8 °F 42.3 °F 29.77 in Calm     98% 0 in meteobridge W/m2
08:40 42.6 °F 41.9 °F 29.77 in ENE 0.9 mph 2 mph 97% 0 in meteobridge W/m2
08:45 42.6 °F 41.9 °F 29.77 in Calm     97% 0 in meteobridge W/m2
08:50 42.6 °F 41.9 °F 29.77 in West 0.9 mph 1 mph 97% 0 in meteobridge W/m2
08:55 42.6 °F 41.9 °F 29.77 in Calm     97% 0 in meteobridge W/m2
09:00 42.6 °F 41.9 °F 29.76 in Calm     97% 0 in meteobridge W/m2
09:05 42.6 °F 41.9 °F 29.77 in Calm     97% 0 in meteobridge W/m2
09:10 42.6 °F 41.9 °F 29.78 in Calm     97% 0 in meteobridge W/m2
09:15 42.8 °F 42.1 °F 29.78 in Calm     97% 0 in meteobridge W/m2
09:20 43 °F 42.3 °F 29.78 in Calm   1 mph 97% 0 in meteobridge W/m2
09:25 43 °F 42.3 °F 29.79 in Calm     97% 0 in meteobridge W/m2
09:30 43 °F 42.3 °F 29.79 in Calm   3 mph 97% 0 in meteobridge W/m2
09:35 43 °F 41.9 °F 29.79 in Calm   2 mph 96% 0 in meteobridge W/m2
09:40 43 °F 42.3 °F 29.79 in Calm     97% 0 in meteobridge W/m2
09:45 43 °F 41.9 °F 29.78 in Calm   3 mph 96% 0 in meteobridge W/m2
09:50 43 °F 41.9 °F 29.78 in Calm   1 mph 96% 0 in meteobridge W/m2
09:55 43.3 °F 42.6 °F 29.78 in Calm     97% 0 in meteobridge W/m2
10:00 43.3 °F 42.6 °F 29.79 in Calm     97% 0 in meteobridge W/m2
10:05 43.5 °F 42.4 °F 29.79 in NW 0.9 mph 6 mph 96% 0 in meteobridge W/m2
10:10 43.9 °F 42.8 °F 29.78 in Calm   2 mph 96% 0 in meteobridge W/m2
10:15 44.1 °F 43 °F 29.79 in Calm   2 mph 96% 0 in meteobridge W/m2
10:20 44.2 °F 43 °F 29.79 in Calm   1 mph 95% 0 in meteobridge W/m2
10:25 44.2 °F 43 °F 29.80 in Calm   1 mph 95% 0 in meteobridge W/m2
10:30 44.2 °F 43 °F 29.80 in NNW 0.9 mph 4 mph 95% 0 in meteobridge W/m2
10:35 44.2 °F 43 °F 29.80 in North 0.9 mph 1 mph 95% 0 in meteobridge W/m2
10:40 44.2 °F 43 °F 29.80 in Calm   5 mph 95% 0 in meteobridge W/m2
10:45 44.2 °F 43 °F 29.80 in Calm     95% 0 in meteobridge W/m2
10:50 44.2 °F 42.6 °F 29.80 in Calm   6 mph 94% 0 in meteobridge W/m2
10:55 44.2 °F 42.3 °F 29.80 in Calm     93% 0 in meteobridge W/m2
11:00 44.2 °F 42.6 °F 29.80 in Calm     94% 0 in meteobridge W/m2
11:05 44.4 °F 42.8 °F 29.80 in ENE 0.9 mph 1 mph 94% 0 in meteobridge W/m2
11:10 44.4 °F 42.8 °F 29.80 in Calm     94% 0 in meteobridge W/m2
11:15 44.6 °F 43 °F 29.80 in Calm   6 mph 94% 0 in meteobridge W/m2
11:20 44.8 °F 42.8 °F 29.80 in Calm     93% 0 in meteobridge W/m2
11:25 44.8 °F 42.8 °F 29.80 in Calm   4 mph 93% 0 in meteobridge W/m2
11:30 45 °F 43 °F 29.81 in Calm     93% 0 in meteobridge W/m2
11:35 45 °F 43 °F 29.81 in Calm     93% 0 in meteobridge W/m2
11:40 45 °F 42.8 °F 29.80 in Calm   2 mph 92% 0 in meteobridge W/m2
11:45 45 °F 42.8 °F 29.81 in Calm     92% 0 in meteobridge W/m2
11:50 45 °F 42.8 °F 29.81 in Calm     92% 0 in meteobridge W/m2
11:55 45 °F 42.4 °F 29.81 in Calm     91% 0 in meteobridge W/m2
12:00 45 °F 42.4 °F 29.81 in Calm   1 mph 91% 0 in meteobridge W/m2
12:05 45 °F 42.4 °F 29.80 in Calm   2 mph 91% 0 in meteobridge W/m2
12:10 45 °F 42.3 °F 29.80 in Calm   1 mph 90% 0 in meteobridge W/m2
12:15 45 °F 42.3 °F 29.80 in Calm   2 mph 90% 0 in meteobridge W/m2
12:20 45 °F 42.3 °F 29.81 in WNW 0.9 mph 2 mph 90% 0 in meteobridge W/m2
12:25 45 °F 42.4 °F 29.80 in Calm   3 mph 91% 0 in meteobridge W/m2
12:30 45.1 °F 42.4 °F 29.80 in WNW 2.9 mph 6 mph 90% 0 in meteobridge W/m2
12:35 45.3 °F 41.9 °F 29.80 in Calm     88% 0 in meteobridge W/m2
12:40 45.7 °F 42.3 °F 29.80 in NE 4 mph 4 mph 88% 0 in meteobridge W/m2
12:45 45.9 °F 41.9 °F 29.80 in Calm   2 mph 86% 0 in meteobridge W/m2
12:50 46 °F 42.1 °F 29.80 in Calm   4 mph 86% 0 in meteobridge W/m2
12:55 46 °F 41.7 °F 29.80 in Calm   6 mph 85% 0 in meteobridge W/m2
13:00 46.2 °F 41.9 °F 29.80 in Calm   1 mph 85% 0 in meteobridge W/m2
13:05 46.4 °F 41.5 °F 29.80 in Calm   5 mph 83% 0 in meteobridge W/m2
13:10 46.6 °F 41.4 °F 29.79 in Calm   2 mph 82% 0 in meteobridge W/m2
13:15 46.9 °F 41.7 °F 29.80 in Calm   4 mph 82% 0 in meteobridge W/m2
13:20 47.1 °F 41.5 °F 29.80 in Calm   3 mph 81% 0.01 in meteobridge W/m2
13:25 47.5 °F 41.9 °F 29.80 in Calm   4 mph 81% 0.01 in meteobridge W/m2
13:30 47.8 °F 42.6 °F 29.80 in North 2 mph 2 mph 82% 0.01 in meteobridge W/m2
13:35 48.2 °F 41.4 °F 29.80 in Calm     77% 0.01 in meteobridge W/m2
13:40 48.6 °F 42.1 °F 29.81 in Calm   2 mph 78% 0.01 in meteobridge W/m2
13:45 48.6 °F 42.1 °F 29.80 in Calm   2 mph 78% 0.01 in meteobridge W/m2
13:50 48.7 °F 42.3 °F 29.80 in Calm   5 mph 78% 0.01 in meteobridge W/m2
13:55 48.7 °F 41.5 °F 29.80 in Calm   1 mph 76% 0.01 in meteobridge W/m2
14:00 49.1 °F 42.3 °F 29.80 in Calm   2 mph 77% 0.01 in meteobridge W/m2
14:05 49.3 °F 41.7 °F 29.80 in Calm   3 mph 75% 0.01 in meteobridge W/m2
14:10 49.1 °F 41.9 °F 29.80 in WSW 4 mph 4 mph 76% 0.01 in meteobridge W/m2
14:15 48.7 °F 40.8 °F 29.80 in Calm   5 mph 74% 0.01 in meteobridge W/m2
14:20 48.6 °F 40.3 °F 29.81 in WNW 2.9 mph 6 mph 73% 0 in meteobridge W/m2
14:25 48.7 °F 41.5 °F 29.81 in West 0.9 mph 6 mph 76% 0 in meteobridge W/m2
14:30 48.9 °F 41.4 °F 29.82 in NW 0.9 mph 5 mph 75% 0 in meteobridge W/m2
14:35 48.9 °F 41 °F 29.82 in Calm   3 mph 74% 0 in meteobridge W/m2
14:40 48.9 °F 40.6 °F 29.82 in NE 2.9 mph 6 mph 73% 0 in meteobridge W/m2
14:45 48.9 °F 41 °F 29.82 in NW 0.9 mph 2 mph 74% 0 in meteobridge W/m2
14:50 49.3 °F 41.4 °F 29.82 in NW 2.9 mph 5 mph 74% 0 in meteobridge W/m2
14:55 49.5 °F 41.2 °F 29.82 in NNE 2.9 mph 4 mph 73% 0 in meteobridge W/m2
15:00 49.5 °F 41.2 °F 29.83 in Calm   5 mph 73% 0 in meteobridge W/m2
15:05 49.1 °F 41.2 °F 29.83 in NW 4 mph 4 mph 74% 0 in meteobridge W/m2
15:10 48.9 °F 41 °F 29.83 in Calm   4 mph 74% 0 in meteobridge W/m2
15:15 48.9 °F 41.7 °F 29.83 in NW 2 mph 3 mph 76% 0 in meteobridge W/m2
15:20 49.1 °F 41.2 °F 29.83 in Calm   2 mph 74% 0 in meteobridge W/m2
15:25 49.3 °F 42.4 °F 29.83 in Calm     77% 0 in meteobridge W/m2
15:30 49.3 °F 42.4 °F 29.83 in Calm     77% 0 in meteobridge W/m2
15:35 49.3 °F 41.4 °F 29.83 in NW 2.9 mph 3 mph 74% 0 in meteobridge W/m2
15:40 49.3 °F 42.1 °F 29.83 in Calm     76% 0 in meteobridge W/m2
15:45 49.1 °F 41.2 °F 29.83 in Calm   1 mph 74% 0 in meteobridge W/m2
15:50 49.1 °F 41.2 °F 29.83 in Calm     74% 0 in meteobridge W/m2
15:55 48.9 °F 41.4 °F 29.84 in Calm     75% 0 in meteobridge W/m2
16:00 48.9 °F 41.7 °F 29.84 in Calm     76% 0 in meteobridge W/m2
16:05 48.9 °F 41 °F 29.84 in Calm     74% 0 in meteobridge W/m2
16:10 48.7 °F 41.2 °F 29.84 in Calm   5 mph 75% 0 in meteobridge W/m2
16:15 48.7 °F 40.8 °F 29.84 in Calm     74% 0 in meteobridge W/m2
16:20 48.6 °F 41 °F 29.85 in Calm   6 mph 75% 0 in meteobridge W/m2
16:25 48.6 °F 41.4 °F 29.85 in Calm   5 mph 76% 0 in meteobridge W/m2
16:30 48.6 °F 42.1 °F 29.85 in Calm     78% 0 in meteobridge W/m2
16:35 48.6 °F 42.1 °F 29.86 in Calm   2 mph 78% 0 in meteobridge W/m2
16:40 48.4 °F 41.2 °F 29.86 in Calm     76% 0 in meteobridge W/m2
16:45 48.2 °F 41 °F 29.86 in Calm     76% 0 in meteobridge W/m2
16:50 48 °F 41.5 °F 29.86 in Calm     78% 0 in meteobridge W/m2
16:55 47.8 °F 41 °F 29.86 in Calm     77% 0 in meteobridge W/m2
17:00 47.7 °F 41.2 °F 29.86 in Calm     78% 0 in meteobridge W/m2
17:05 47.3 °F 41.2 °F 29.87 in Calm     79% 0 in meteobridge W/m2
17:10 47.1 °F 41.4 °F 29.87 in Calm     80% 0 in meteobridge W/m2
17:15 46.9 °F 41.4 °F 29.87 in Calm     81% 0 in meteobridge W/m2
17:20 46.6 °F 41.7 °F 29.87 in Calm     83% 0 in meteobridge W/m2
17:25 46.4 °F 41.5 °F 29.87 in Calm     83% 0 in meteobridge W/m2
17:30 46 °F 40.8 °F 29.87 in Calm     82% 0 in meteobridge W/m2
17:35 45.9 °F 41.5 °F 29.87 in Calm     85% 0 in meteobridge W/m2
17:40 45.9 °F 41.5 °F 29.88 in Calm     85% 0 in meteobridge W/m2
17:45 45.7 °F 41.7 °F 29.88 in Calm     86% 0 in meteobridge W/m2
17:50 45.7 °F 41.7 °F 29.88 in Calm     86% 0 in meteobridge W/m2
17:55 45.5 °F 41.5 °F 29.88 in Calm     86% 0 in meteobridge W/m2
18:00 45.5 °F 41.5 °F 29.88 in Calm     86% 0 in meteobridge W/m2
18:05 45.3 °F 41.7 °F 29.88 in Calm     87% 0 in meteobridge W/m2
18:10 45.3 °F 41 °F 29.88 in Calm     85% 0 in meteobridge W/m2
18:15 45.3 °F 41.7 °F 29.89 in Calm     87% 0 in meteobridge W/m2
18:20 45.1 °F 41.7 °F 29.89 in Calm     88% 0 in meteobridge W/m2
18:25 45 °F 41.4 °F 29.89 in Calm     87% 0 in meteobridge W/m2
18:30 44.8 °F 41.2 °F 29.90 in Calm     87% 0 in meteobridge W/m2
18:35 44.4 °F 41.2 °F 29.90 in Calm     88% 0 in meteobridge W/m2
18:40 44.2 °F 41 °F 29.90 in Calm     88% 0 in meteobridge W/m2
18:45 44.1 °F 40.5 °F 29.90 in Calm     87% 0 in meteobridge W/m2
18:50 43.9 °F 40.6 °F 29.91 in Calm     88% 0 in meteobridge W/m2
18:55 43.5 °F 40.3 °F 29.91 in Calm     88% 0 in meteobridge W/m2
19:00 43.3 °F 40.1 °F 29.91 in Calm     88% 0 in meteobridge W/m2
19:05 43.2 °F 39.6 °F 29.91 in Calm     87% 0 in meteobridge W/m2
19:10 43 °F 39.4 °F 29.91 in Calm     87% 0 in meteobridge W/m2
19:15 42.8 °F 39.2 °F 29.91 in Calm     87% 0 in meteobridge W/m2
19:20 42.6 °F 39 °F 29.91 in Calm     87% 0 in meteobridge W/m2
19:25 42.4 °F 38.8 °F 29.91 in Calm     87% 0 in meteobridge W/m2
19:30 42.3 °F 38.7 °F 29.92 in Calm     87% 0 in meteobridge W/m2
19:35 42.1 °F 38.8 °F 29.92 in Calm     88% 0 in meteobridge W/m2
19:40 41.7 °F 38.5 °F 29.93 in Calm     88% 0 in meteobridge W/m2
19:45 41.5 °F 38.5 °F 29.93 in Calm     89% 0 in meteobridge W/m2
19:50 41.2 °F 38.5 °F 29.93 in Calm     90% 0 in meteobridge W/m2
19:55 40.8 °F 38.1 °F 29.93 in Calm     90% 0 in meteobridge W/m2
20:00 40.5 °F 38.1 °F 29.94 in Calm     91% 0 in meteobridge W/m2
20:05 40.1 °F 37.8 °F 29.94 in Calm     91% 0 in meteobridge W/m2
20:10 39.7 °F 37.6 °F 29.94 in Calm     92% 0 in meteobridge W/m2
20:15 39.6 °F 37.4 °F 29.95 in Calm     92% 0 in meteobridge W/m2
20:20 39.4 °F 37.6 °F 29.95 in Calm     93% 0 in meteobridge W/m2
20:25 39.4 °F 37.6 °F 29.95 in Calm     93% 0 in meteobridge W/m2
20:30 39.2 °F 37.4 °F 29.95 in Calm     93% 0 in meteobridge W/m2
20:35 39 °F 37.2 °F 29.95 in Calm     93% 0 in meteobridge W/m2
20:40 39 °F 37.4 °F 29.95 in Calm     94% 0 in meteobridge W/m2
20:45 39 °F 37.4 °F 29.96 in Calm     94% 0 in meteobridge W/m2
20:50 39.2 °F 37.6 °F 29.96 in Calm     94% 0 in meteobridge W/m2
20:55 39.2 °F 37.6 °F 29.96 in Calm     94% 0 in meteobridge W/m2
21:00 39.2 °F 37.6 °F 29.96 in Calm     94% 0 in meteobridge W/m2
21:05 39.4 °F 37.8 °F 29.96 in Calm     94% 0 in meteobridge W/m2
21:10 39.4 °F 37.8 °F 29.96 in Calm     94% 0 in meteobridge W/m2
21:15 39.4 °F 37.8 °F 29.96 in Calm     94% 0 in meteobridge W/m2
21:20 39.6 °F 37.9 °F 29.96 in Calm     94% 0 in meteobridge W/m2
21:25 39.7 °F 38.1 °F 29.96 in Calm     94% 0 in meteobridge W/m2
21:30 39.6 °F 37.9 °F 29.95 in Calm     94% 0 in meteobridge W/m2
21:35 39.6 °F 37.9 °F 29.96 in Calm     94% 0 in meteobridge W/m2
21:40 39.6 °F 37.9 °F 29.96 in Calm     94% 0 in meteobridge W/m2
21:45 39.4 °F 37.8 °F 29.96 in Calm     94% 0 in meteobridge W/m2
21:50 39.4 °F 37.8 °F 29.96 in Calm     94% 0 in meteobridge W/m2
21:55 39 °F 37.2 °F 29.96 in Calm     93% 0 in meteobridge W/m2
22:00 39 °F 37.4 °F 29.96 in Calm     94% 0 in meteobridge W/m2
22:05 38.8 °F 37.2 °F 29.97 in Calm     94% 0 in meteobridge W/m2
22:10 38.7 °F 37 °F 29.97 in Calm     94% 0 in meteobridge W/m2
22:15 38.5 °F 36.7 °F 29.97 in Calm     93% 0 in meteobridge W/m2
22:20 38.3 °F 36.7 °F 29.97 in Calm     94% 0 in meteobridge W/m2
22:25 38.1 °F 36.5 °F 29.97 in Calm     94% 0 in meteobridge W/m2
22:30 37.9 °F 36.3 °F 29.97 in Calm     94% 0 in meteobridge W/m2
22:35 37.8 °F 36.1 °F 29.97 in Calm     94% 0 in meteobridge W/m2
22:40 37.8 °F 36.5 °F 29.97 in Calm     95% 0 in meteobridge W/m2
22:45 37.8 °F 36.5 °F 29.98 in Calm     95% 0 in meteobridge W/m2
22:50 37.8 °F 36.5 °F 29.98 in Calm     95% 0 in meteobridge W/m2
22:55 37.8 °F 36.5 °F 29.98 in Calm     95% 0 in meteobridge W/m2
23:00 37.8 °F 36.5 °F 29.98 in Calm     95% 0 in meteobridge W/m2
23:05 37.8 °F 36.5 °F 29.98 in Calm     95% 0 in meteobridge W/m2
23:10 37.8 °F 36.5 °F 29.98 in Calm     95% 0 in meteobridge W/m2
23:15 37.9 °F 36.7 °F 29.99 in Calm     95% 0 in meteobridge W/m2
23:20 37.8 °F 36.5 °F 29.98 in Calm     95% 0 in meteobridge W/m2
23:25 37.6 °F 36.3 °F 29.99 in Calm     95% 0 in meteobridge W/m2
23:30 37.6 °F 36.3 °F 29.99 in Calm     95% 0 in meteobridge W/m2
23:35 37.4 °F 36.1 °F 30.00 in Calm     95% 0 in meteobridge W/m2
23:40 37.2 °F 36 °F 30.00 in Calm     95% 0 in meteobridge W/m2
23:45 37 °F 35.8 °F 30.00 in Calm     95% 0 in meteobridge W/m2
23:50 36.9 °F 35.6 °F 30.00 in Calm     95% 0 in meteobridge W/m2
23:55 36.7 °F 35.4 °F 30.00 in Calm     95% 0 in meteobridge W/m2
EllijayWeather
Compliments of Weather Underground - 2.5 mb